Time;durP1;ratioP1;P1;durP2;ratioP2;P2;SDS_P1;SDS_P2;PMS_P1;PMS_P2;Temp;Humidity;BMP_temperature;BMP_pressure;BME280_temperature;BME280_humidity;BME280_pressure;Samples;Min_cycle;Max_cycle;Signal;HPM_P1;HPM_P2
2023/09/23 00:01:44;;;;;;;5.72;3.97;;;;;;;11.72;100.00;100486.34;4976716;28;20535;-69
2023/09/23 00:04:09;;;;;;;6.50;4.35;;;;;;;11.72;100.00;100494.16;4959804;28;20049;-69
2023/09/23 00:06:35;;;;;;;5.45;4.18;;;;;;;11.65;100.00;100496.59;4978952;28;20127;-70
2023/09/23 00:09:07;;;;;;;5.03;3.88;;;;;;;11.60;100.00;100496.28;4957926;28;20544;-69
2023/09/23 00:11:35;;;;;;;6.72;3.65;;;;;;;11.54;100.00;100504.78;4968189;28;20085;-69
2023/09/23 00:14:01;;;;;;;10.55;3.65;;;;;;;11.49;100.00;100498.31;4980866;28;20050;-69
2023/09/23 00:16:26;;;;;;;8.07;5.50;;;;;;;11.45;100.00;100498.78;4980290;28;20039;-69
2023/09/23 00:18:51;;;;;;;9.02;6.35;;;;;;;11.43;100.00;100501.59;4977093;28;20046;-69
2023/09/23 00:21:17;;;;;;;23.88;13.50;;;;;;;11.32;100.00;100504.53;4956600;28;20567;-70
2023/09/23 00:23:45;;;;;;;33.42;18.38;;;;;;;11.40;100.00;100508.91;4960044;28;20387;-69
2023/09/23 00:26:11;;;;;;;33.40;18.60;;;;;;;11.38;100.00;100509.06;4978879;28;20161;-69
2023/09/23 00:28:36;;;;;;;34.67;19.40;;;;;;;11.26;100.00;100511.22;4963002;28;20030;-69
2023/09/23 00:31:14;;;;;;;36.88;19.90;;;;;;;11.30;100.00;100520.28;4960066;28;20035;-69
2023/09/23 00:33:41;;;;;;;33.90;20.02;;;;;;;11.32;100.00;100516.69;4962414;28;20038;-70
2023/09/23 00:36:08;;;;;;;34.55;19.23;;;;;;;11.34;100.00;100531.16;4957365;28;20067;-69
2023/09/23 00:38:37;;;;;;;33.67;18.67;;;;;;;11.33;100.00;100529.50;4958071;28;20038;-69
2023/09/23 00:41:04;;;;;;;29.50;17.08;;;;;;;11.33;100.00;100541.69;4971555;28;20043;-69
2023/09/23 00:43:32;;;;;;;30.65;16.83;;;;;;;11.21;100.00;100538.66;4941359;28;20050;-70
2023/09/23 00:46:00;;;;;;;26.20;15.40;;;;;;;11.19;100.00;100535.38;4955904;28;20045;-69
2023/09/23 00:48:26;;;;;;;25.73;15.57;;;;;;;11.19;100.00;100538.81;4977946;28;20073;-69
2023/09/23 00:50:54;;;;;;;25.80;13.80;;;;;;;11.17;100.00;100535.56;4976023;28;20150;-70
2023/09/23 00:53:21;;;;;;;22.65;13.02;;;;;;;11.20;100.00;100544.78;4962851;28;20096;-69
2023/09/23 00:55:52;;;;;;;19.27;12.00;;;;;;;11.17;100.00;100537.34;4973752;28;20540;-69
2023/09/23 00:58:21;;;;;;;17.35;11.45;;;;;;;11.16;100.00;100540.91;4971190;28;20050;-70
2023/09/23 01:00:49;;;;;;;21.15;10.20;;;;;;;11.20;100.00;100539.59;4962441;28;20037;-69
2023/09/23 01:03:18;;;;;;;16.27;9.70;;;;;;;11.16;100.00;100541.72;4961585;28;20043;-70
2023/09/23 01:05:46;;;;;;;14.85;9.82;;;;;;;11.13;100.00;100542.03;4956976;28;20122;-69
2023/09/23 01:08:18;;;;;;;16.67;8.43;;;;;;;11.16;100.00;100546.09;4977860;28;20458;-70
2023/09/23 01:10:45;;;;;;;18.10;8.52;;;;;;;11.18;100.00;100541.56;4960668;28;20051;-69
2023/09/23 01:13:11;;;;;;;13.07;7.22;;;;;;;11.10;100.00;100543.19;4949555;28;20038;-69
2023/09/23 01:15:40;;;;;;;15.35;6.60;;;;;;;11.08;100.00;100550.34;4957210;28;20556;-69
2023/09/23 01:18:13;;;;;;;9.38;6.20;;;;;;;11.04;100.00;100562.03;4961009;28;20085;-69
2023/09/23 01:20:42;;;;;;;11.38;6.50;;;;;;;11.03;100.00;100562.97;4956056;28;20042;-69
2023/09/23 01:23:12;;;;;;;10.55;5.43;;;;;;;11.02;100.00;100563.97;4964308;28;20139;-69
2023/09/23 01:25:38;;;;;;;8.25;5.15;;;;;;;11.01;100.00;100567.53;4958720;28;20076;-69
2023/09/23 01:28:08;;;;;;;9.80;5.30;;;;;;;11.00;100.00;100573.72;4974965;28;20038;-69
2023/09/23 01:30:35;;;;;;;7.03;5.18;;;;;;;11.02;100.00;100581.31;4959368;28;20405;-69
2023/09/23 01:33:02;;;;;;;8.52;5.68;;;;;;;10.99;100.00;100582.47;4959434;28;20046;-69
2023/09/23 01:35:28;;;;;;;9.98;5.88;;;;;;;11.09;100.00;100577.91;4942935;28;20097;-70
2023/09/23 01:37:55;;;;;;;6.55;4.72;;;;;;;11.00;100.00;100589.28;4959264;28;20031;-69
2023/09/23 01:40:24;;;;;;;6.50;4.43;;;;;;;10.98;100.00;100585.22;4973008;28;20035;-69
2023/09/23 01:42:49;;;;;;;7.60;4.90;;;;;;;10.96;100.00;100582.78;4959171;28;20100;-69
2023/09/23 01:45:15;;;;;;;9.48;4.97;;;;;;;10.95;100.00;100586.34;4948699;28;20448;-69
2023/09/23 01:47:42;;;;;;;8.43;4.88;;;;;;;10.95;100.00;100586.34;4955383;28;20552;-69
2023/09/23 01:50:11;;;;;;;10.35;5.38;;;;;;;10.95;100.00;100594.13;4947810;28;20065;-70
2023/09/23 01:52:40;;;;;;;6.85;4.85;;;;;;;10.95;100.00;100591.53;4958229;28;20098;-69
2023/09/23 01:55:08;;;;;;;9.27;5.65;;;;;;;10.90;100.00;100597.19;4960247;28;20031;-69
2023/09/23 01:57:34;;;;;;;8.38;5.30;;;;;;;10.89;100.00;100598.19;4949552;28;20039;-70
2023/09/23 02:00:01;;;;;;;11.95;4.70;;;;;;;10.88;100.00;100600.94;4952559;28;20038;-69
2023/09/23 02:02:38;;;;;;;10.77;5.25;;;;;;;10.90;100.00;100604.19;4977214;28;20521;-70
2023/09/23 02:05:04;;;;;;;10.45;5.25;;;;;;;10.84;100.00;100613.44;4971979;28;20690;-70
2023/09/23 02:07:30;;;;;;;9.02;4.60;;;;;;;10.84;100.00;100616.03;4957102;28;20046;-70
2023/09/23 02:09:56;;;;;;;10.98;4.40;;;;;;;10.95;100.00;100624.47;4965008;28;20104;-69
2023/09/23 02:12:23;;;;;;;6.65;4.45;;;;;;;10.87;100.00;100620.91;4957882;28;20101;-69
2023/09/23 02:14:48;;;;;;;7.55;4.00;;;;;;;10.89;100.00;100623.34;4958323;28;20049;-70
2023/09/23 02:17:15;;;;;;;5.22;3.28;;;;;;;10.91;100.00;100629.97;4956378;28;20039;-69
2023/09/23 02:19:40;;;;;;;7.10;3.30;;;;;;;10.85;100.00;100627.19;4960338;28;20089;-69
2023/09/23 02:22:06;;;;;;;7.65;3.90;;;;;;;10.83;100.00;100631.75;4946426;28;20057;-70
2023/09/23 02:24:33;;;;;;;9.25;4.15;;;;;;;10.84;100.00;100626.41;4961685;28;20042;-69
2023/09/23 02:26:59;;;;;;;10.73;3.65;;;;;;;10.80;100.00;100635.47;4978379;28;20114;-70
2023/09/23 02:29:25;;;;;;;9.93;3.00;;;;;;;10.79;100.00;100636.44;4956851;28;20031;-70
2023/09/23 02:31:50;;;;;;;8.23;2.67;;;;;;;10.79;100.00;100640.81;4961367;28;20042;-70
2023/09/23 02:34:20;;;;;;;3.78;2.28;;;;;;;10.79;100.00;100639.03;4974287;28;20034;-70
2023/09/23 02:36:46;;;;;;;7.60;2.88;;;;;;;10.78;100.00;100642.59;4973197;28;20041;-70
2023/09/23 02:39:16;;;;;;;6.90;3.00;;;;;;;10.74;100.00;100640.47;4957496;28;20030;-70
2023/09/23 02:41:45;;;;;;;8.05;2.53;;;;;;;10.79;100.00;100651.19;4958323;28;20101;-69
2023/09/23 02:44:18;;;;;;;8.65;2.33;;;;;;;10.77;100.00;100647.94;4961808;28;20050;-69
2023/09/23 02:46:45;;;;;;;;;;;;;;;10.74;100.00;100643.06;4973368;28;20042;-71
2023/09/23 02:49:13;;;;;;;13.40;2.17;;;;;;;10.85;100.00;100651.38;4979764;28;19914;-70
2023/09/23 02:51:38;;;;;;;12.10;2.60;;;;;;;10.87;100.00;100651.22;4956731;28;20062;-70
2023/09/23 02:54:05;;;;;;;7.47;2.20;;;;;;;10.82;100.00;100653.47;4959019;28;20042;-70
2023/09/23 02:56:34;;;;;;;5.07;1.90;;;;;;;10.76;100.00;100660.13;4955490;28;20030;-70
2023/09/23 02:59:00;;;;;;;7.75;1.95;;;;;;;10.78;100.00;100658.16;4966422;28;20058;-70
2023/09/23 03:01:27;;;;;;;11.07;3.13;;;;;;;10.75;100.00;100665.47;4951244;28;20035;-69
2023/09/23 03:03:55;;;;;;;7.53;2.85;;;;;;;10.75;100.00;100662.88;4970592;28;20053;-69
2023/09/23 03:06:22;;;;;;;8.98;3.20;;;;;;;10.73;100.00;100664.81;4955625;28;20197;-70
2023/09/23 03:08:53;;;;;;;11.70;3.90;;;;;;;10.74;100.00;100671.59;4956772;28;20035;-70
2023/09/23 03:11:20;;;;;;;8.30;3.50;;;;;;;10.71;100.00;100667.56;4958124;28;20173;-69
2023/09/23 03:13:46;;;;;;;13.57;4.25;;;;;;;10.64;100.00;100670.00;4945181;28;20552;-69
2023/09/23 03:16:14;;;;;;;10.55;3.10;;;;;;;10.65;100.00;100669.00;4959871;28;20040;-69
2023/09/23 03:18:59;;;;;;;6.30;3.08;;;;;;;10.64;100.00;100672.59;4970232;28;20035;-69
2023/09/23 03:21:25;;;;;;;10.15;2.92;;;;;;;10.64;100.00;100674.34;4954129;28;20057;-69
2023/09/23 03:23:51;;;;;;;11.18;3.42;;;;;;;10.63;100.00;100672.75;4959225;28;20528;-69
2023/09/23 03:26:19;;;;;;;5.90;2.17;;;;;;;10.62;100.00;100674.50;4951299;28;20070;-69
2023/09/23 03:28:46;;;;;;;6.20;2.17;;;;;;;10.59;100.00;100676.63;4958309;28;20070;-69
2023/09/23 03:31:14;;;;;;;3.58;1.50;;;;;;;10.60;100.00;100671.25;4965272;28;20061;-68
2023/09/23 03:33:44;;;;;;;8.40;2.00;;;;;;;10.66;100.00;100681.00;4964552;28;20396;-69
2023/09/23 03:36:14;;;;;;;4.10;1.45;;;;;;;10.68;100.00;100675.66;4958444;28;20030;-69
2023/09/23 03:38:41;;;;;;;6.93;1.30;;;;;;;10.65;100.00;100675.97;4960134;28;20069;-69
2023/09/23 03:41:08;;;;;;;3.47;1.40;;;;;;;10.59;100.00;100681.81;4961032;28;20085;-69
2023/09/23 03:43:33;;;;;;;5.95;1.80;;;;;;;10.65;100.00;100671.59;4962742;28;20042;-69
2023/09/23 03:45:59;;;;;;;6.30;1.65;;;;;;;10.56;100.00;100671.75;4957520;28;20500;-69
2023/09/23 03:48:25;;;;;;;4.88;1.30;;;;;;;10.63;100.00;100675.34;4956434;28;20035;-69
2023/09/23 03:50:52;;;;;;;3.05;1.50;;;;;;;10.66;100.00;100675.00;4961945;28;20027;-69
2023/09/23 03:53:21;;;;;;;4.70;1.30;;;;;;;10.58;100.00;100670.59;4965183;28;20126;-69
2023/09/23 03:55:54;;;;;;;4.82;1.38;;;;;;;10.51;100.00;100680.00;4943907;28;20129;-69
2023/09/23 03:58:19;;;;;;;;;;;;;;;10.58;100.00;100673.19;4963418;28;20058;-69
2023/09/23 04:00:45;;;;;;;6.43;1.20;;;;;;;10.59;100.00;100674.84;4960124;28;20369;-69
2023/09/23 04:03:10;;;;;;;7.43;1.60;;;;;;;10.55;100.00;100676.13;4960953;28;20034;-69
2023/09/23 04:05:36;;;;;;;10.60;1.75;;;;;;;10.50;100.00;100676.59;4959613;28;20118;-69
2023/09/23 04:08:02;;;;;;;12.90;1.60;;;;;;;10.51;100.00;100673.03;4962520;28;20058;-69
2023/09/23 04:10:28;;;;;;;8.32;1.75;;;;;;;10.52;100.00;100674.66;4957788;28;20062;-69
2023/09/23 04:12:54;;;;;;;5.60;1.77;;;;;;;10.61;100.00;100680.66;4978691;28;20050;-69
2023/09/23 04:15:24;;;;;;;3.67;1.20;;;;;;;10.55;100.00;100680.47;4983542;28;20034;-69
2023/09/23 04:17:50;;;;;;;8.15;1.40;;;;;;;10.53;100.00;100680.66;4961719;28;20038;-69
2023/09/23 04:20:16;;;;;;;5.28;1.58;;;;;;;10.49;100.00;100690.53;4959285;28;20045;-69
2023/09/23 04:22:42;;;;;;;6.68;1.60;;;;;;;10.49;100.00;100690.53;4982749;28;20504;-69
2023/09/23 04:25:10;;;;;;;10.40;1.30;;;;;;;10.52;100.00;100699.78;4963140;28;20525;-69
2023/09/23 04:27:37;;;;;;;4.38;1.48;;;;;;;10.43;100.00;100701.50;4964333;28;20046;-69
2023/09/23 04:30:11;;;;;;;4.88;1.20;;;;;;;10.50;100.00;100702.50;4964422;28;20054;-68
2023/09/23 04:32:38;;;;;;;6.25;1.40;;;;;;;10.57;100.00;100701.88;4959089;28;20126;-68
2023/09/23 04:35:16;;;;;;;4.07;1.20;;;;;;;10.51;100.00;100705.94;4960335;28;20045;-68
2023/09/23 04:37:42;;;;;;;6.20;1.50;;;;;;;10.41;100.00;100713.81;4963526;28;20046;-68
2023/09/23 04:40:09;;;;;;;5.65;1.20;;;;;;;10.42;100.00;100714.66;4977222;28;20039;-68
2023/09/23 04:42:35;;;;;;;8.73;1.30;;;;;;;10.35;100.00;100719.63;4978443;28;20042;-68
2023/09/23 04:45:03;;;;;;;6.50;1.88;;;;;;;10.36;100.00;100710.91;4976846;28;20388;-68
2023/09/23 04:47:28;;;;;;;6.53;1.45;;;;;;;10.38;100.00;100719.34;4974551;28;20067;-68
2023/09/23 04:49:55;;;;;;;7.45;1.60;;;;;;;10.42;100.00;100717.25;4957972;28;20042;-68
2023/09/23 04:52:20;;;;;;;6.25;1.50;;;;;;;10.45;100.00;100715.16;4959446;28;20141;-68
2023/09/23 04:54:46;;;;;;;8.05;1.67;;;;;;;10.33;100.00;100724.16;4974545;28;20177;-68
2023/09/23 04:57:13;;;;;;;3.85;1.73;;;;;;;10.40;100.00;100724.38;4958122;28;20027;-68
2023/09/23 04:59:39;;;;;;;6.50;1.75;;;;;;;10.45;100.00;100728.13;4957816;28;20043;-68
2023/09/23 05:02:04;;;;;;;11.85;1.90;;;;;;;10.47;100.00;100735.72;4978010;28;20125;-68
2023/09/23 05:04:30;;;;;;;3.80;1.52;;;;;;;10.41;100.00;100738.94;4965225;28;20030;-68
2023/09/23 05:06:56;;;;;;;6.15;1.70;;;;;;;10.31;100.00;100747.66;4960125;28;20068;-68
2023/09/23 05:09:25;;;;;;;6.70;2.92;;;;;;;10.38;100.00;100749.59;4974544;28;20062;-68
2023/09/23 05:11:51;;;;;;;6.43;1.52;;;;;;;10.31;100.00;100760.59;4976667;28;20110;-68
2023/09/23 05:14:17;;;;;;;12.65;2.13;;;;;;;10.34;100.00;100759.50;4978515;28;20044;-69
2023/09/23 05:16:42;;;;;;;4.65;1.80;;;;;;;10.35;100.00;100758.53;4977220;28;20026;-68
2023/09/23 05:19:09;;;;;;;5.15;3.20;;;;;;;10.33;100.00;100770.81;4976846;28;20038;-68
2023/09/23 05:21:35;;;;;;;5.25;1.58;;;;;;;10.32;100.00;100769.19;4954421;28;20118;-68
2023/09/23 05:24:01;;;;;;;3.75;2.20;;;;;;;10.29;100.00;100778.06;4977455;28;20045;-68
2023/09/23 05:26:27;;;;;;;6.03;1.55;;;;;;;10.33;100.00;100781.19;4958082;28;20525;-68
2023/09/23 05:28:52;;;;;;;6.82;2.20;;;;;;;10.39;100.00;100783.16;4960714;28;20034;-68
2023/09/23 05:31:18;;;;;;;11.05;1.92;;;;;;;10.39;100.00;100790.13;4957505;28;20489;-68
2023/09/23 05:33:43;;;;;;;4.15;2.03;;;;;;;10.36;100.00;100795.63;4977749;28;20054;-68
2023/09/23 05:36:10;;;;;;;9.38;2.17;;;;;;;10.36;100.00;100796.44;4975683;28;20054;-68
2023/09/23 05:38:36;;;;;;;5.38;1.83;;;;;;;10.30;100.00;100803.06;4956900;28;20121;-68
2023/09/23 05:41:05;;;;;;;6.00;2.20;;;;;;;10.31;100.00;100809.84;4973474;28;20038;-68
2023/09/23 05:43:30;;;;;;;6.93;2.22;;;;;;;10.43;100.00;100814.78;4959911;28;20038;-68
2023/09/23 05:45:56;;;;;;;8.38;2.05;;;;;;;10.37;100.00;100820.56;4961230;28;20624;-68
2023/09/23 05:48:21;;;;;;;8.60;2.00;;;;;;;10.33;100.00;100827.84;4958246;28;20041;-68
2023/09/23 05:50:49;;;;;;;5.25;1.98;;;;;;;10.42;100.00;100833.91;4978378;28;20042;-68
2023/09/23 05:53:15;;;;;;;6.22;2.22;;;;;;;10.47;100.00;100831.63;4975736;28;20050;-68
2023/09/23 05:55:40;;;;;;;7.30;1.77;;;;;;;10.47;100.00;100836.81;4962926;28;20117;-67
2023/09/23 05:58:06;;;;;;;6.47;2.00;;;;;;;10.45;100.00;100841.34;4960048;28;20038;-68
2023/09/23 06:00:31;;;;;;;3.72;1.70;;;;;;;10.41;100.00;100840.03;4972016;28;20085;-68
2023/09/23 06:02:57;;;;;;;11.52;2.08;;;;;;;10.43;100.00;100848.47;4980685;28;20131;-68
2023/09/23 06:05:22;;;;;;;6.03;2.05;;;;;;;10.48;100.00;100851.41;4983181;28;20076;-68
2023/09/23 06:07:48;;;;;;;6.90;1.90;;;;;;;10.46;100.00;100861.94;4962688;28;20416;-68
2023/09/23 06:10:15;;;;;;;7.15;1.98;;;;;;;10.49;100.00;100863.41;4963854;28;20037;-68
2023/09/23 06:12:40;;;;;;;6.18;2.28;;;;;;;10.60;100.00;100877.88;4956012;28;20037;-68
2023/09/23 06:15:06;;;;;;;11.57;1.83;;;;;;;10.61;100.00;100874.34;4976452;28;20524;-68
2023/09/23 06:17:35;;;;;;;5.65;1.65;;;;;;;10.54;100.00;100879.31;4976212;28;20031;-68
2023/09/23 06:20:00;;;;;;;6.25;1.90;;;;;;;10.55;100.00;100887.91;4971581;28;20049;-68
2023/09/23 06:22:27;;;;;;;7.22;1.95;;;;;;;10.62;100.00;100888.91;4960941;28;20031;-68
2023/09/23 06:24:53;;;;;;;9.73;2.28;;;;;;;10.69;100.00;100895.13;4955959;28;20038;-67
2023/09/23 06:27:19;;;;;;;8.52;2.17;;;;;;;10.76;100.00;100903.13;4977379;28;20062;-67
2023/09/23 06:29:46;;;;;;;5.63;1.92;;;;;;;10.96;100.00;100912.25;4975690;28;20086;-68
2023/09/23 06:32:12;;;;;;;11.75;2.30;;;;;;;11.17;100.00;100906.69;4973375;28;20098;-67
2023/09/23 06:34:37;;;;;;;6.65;2.60;;;;;;;11.62;100.00;100905.50;4959882;28;20059;-68
2023/09/23 06:37:03;;;;;;;5.68;2.20;;;;;;;12.20;100.00;100910.75;4958275;28;20073;-68
2023/09/23 06:39:28;;;;;;;12.27;1.90;;;;;;;12.81;100.00;100909.31;4941458;28;20038;-68
2023/09/23 06:41:55;;;;;;;7.25;1.70;;;;;;;13.13;100.00;100912.78;4972257;28;20035;-68
2023/09/23 06:44:20;;;;;;;9.07;1.85;;;;;;;13.44;98.10;100912.00;4974045;28;20034;-68
2023/09/23 06:46:46;;;;;;;9.90;2.30;;;;;;;13.91;95.86;100918.84;4958056;28;20119;-69
2023/09/23 06:49:11;;;;;;;6.00;1.10;;;;;;;14.15;93.42;100912.63;4956670;28;20030;-68
2023/09/23 06:51:37;;;;;;;9.73;1.35;;;;;;;14.19;91.45;100929.53;4976809;28;20058;-67
2023/09/23 06:54:02;;;;;;;3.83;1.63;;;;;;;14.32;91.17;100931.53;4973032;28;20445;-68
2023/09/23 06:56:28;;;;;;;9.15;1.50;;;;;;;14.59;90.82;100940.59;4959586;28;20041;-68
2023/09/23 06:58:54;;;;;;;2.28;1.20;;;;;;;15.04;87.62;100943.19;4965374;28;20046;-68
2023/09/23 07:01:21;;;;;;;4.10;1.25;;;;;;;15.31;86.58;100939.13;4984577;28;20066;-68
2023/09/23 07:03:47;;;;;;;6.78;1.50;;;;;;;15.64;83.74;100950.91;4983625;28;20074;-68
2023/09/23 07:06:12;;;;;;;4.13;1.10;;;;;;;15.68;83.12;100950.34;4970462;28;20061;-68
2023/09/23 07:08:38;;;;;;;5.47;1.30;;;;;;;15.64;83.46;100958.75;4962283;28;20069;-67
2023/09/23 07:11:03;;;;;;;8.43;1.63;;;;;;;15.75;82.78;100953.06;4965343;28;20038;-67
2023/09/23 07:13:30;;;;;;;5.15;1.00;;;;;;;15.90;82.07;100958.25;4965196;28;20042;-68
2023/09/23 07:15:56;;;;;;;7.45;1.40;;;;;;;16.03;81.40;100966.22;4943578;28;20045;-67
2023/09/23 07:18:21;;;;;;;9.20;1.70;;;;;;;15.95;80.59;100969.75;4976492;28;20034;-68
2023/09/23 07:20:47;;;;;;;5.20;1.23;;;;;;;16.25;80.49;100974.03;4962257;28;20034;-68
2023/09/23 07:23:12;;;;;;;4.85;0.98;;;;;;;16.70;78.52;100971.94;4984896;28;20038;-68
2023/09/23 07:25:39;;;;;;;6.60;1.50;;;;;;;16.57;77.78;100972.66;4983257;28;20543;-66
2023/09/23 07:28:09;;;;;;;7.35;1.40;;;;;;;16.35;79.56;100983.19;4956930;28;20479;-67
2023/09/23 07:30:36;;;;;;;7.88;1.23;;;;;;;16.67;79.33;100990.63;4969653;28;20104;-67
2023/09/23 07:33:02;;;;;;;4.25;1.30;;;;;;;16.93;75.87;100988.22;4983291;28;20034;-67
2023/09/23 07:35:32;;;;;;;4.72;1.90;;;;;;;16.97;77.44;100996.50;4963184;28;20039;-67
2023/09/23 07:37:59;;;;;;;2.95;1.30;;;;;;;17.22;75.84;100998.66;4962534;28;20039;-67
2023/09/23 07:40:28;;;;;;;3.10;1.20;;;;;;;17.00;76.03;101008.41;4985154;28;20034;-67
2023/09/23 07:42:54;;;;;;;4.60;1.20;;;;;;;17.10;76.74;101008.84;4957897;28;20042;-67
2023/09/23 07:45:20;;;;;;;5.47;1.13;;;;;;;17.10;77.11;101012.28;4959469;28;20042;-67
2023/09/23 07:47:45;;;;;;;4.38;1.20;;;;;;;17.49;75.21;101017.88;4965244;28;20789;-67
2023/09/23 07:50:11;;;;;;;7.30;1.70;;;;;;;17.42;74.03;101017.06;4966798;28;20045;-67
2023/09/23 07:52:37;;;;;;;5.85;1.65;;;;;;;17.39;75.59;101027.94;4963752;28;20046;-67
2023/09/23 07:55:04;;;;;;;9.52;1.63;;;;;;;18.03;73.39;101029.38;4963747;28;20042;-67
2023/09/23 07:57:30;;;;;;;3.28;1.48;;;;;;;18.17;70.66;101027.56;4982680;28;20094;-67
2023/09/23 07:59:56;;;;;;;4.38;1.88;;;;;;;17.43;72.77;101027.34;4979339;28;20048;-67
2023/09/23 08:02:21;;;;;;;6.43;1.95;;;;;;;17.30;73.72;101030.72;4979211;28;20038;-67
2023/09/23 08:04:47;;;;;;;10.27;2.05;;;;;;;17.57;73.47;101032.63;4978968;28;20054;-67
2023/09/23 08:07:13;;;;;;;6.90;1.70;;;;;;;17.65;72.94;101040.31;4979402;28;20039;-67
2023/09/23 08:09:38;;;;;;;4.57;1.30;;;;;;;17.56;73.35;101031.84;4959891;28;20097;-67
2023/09/23 08:12:04;;;;;;;5.03;1.88;;;;;;;17.57;72.83;101035.25;4974603;28;20047;-67
2023/09/23 08:14:30;;;;;;;7.65;1.90;;;;;;;17.66;72.70;101040.13;4980473;28;20023;-69
2023/09/23 08:16:55;;;;;;;3.35;1.65;;;;;;;17.66;71.91;101055.84;4960541;28;20019;-67
2023/09/23 08:19:23;;;;;;;7.43;1.67;;;;;;;18.05;72.12;101053.59;4972148;28;20441;-67
2023/09/23 08:21:49;;;;;;;9.70;1.90;;;;;;;17.56;72.11;101059.88;4975039;28;20497;-66
2023/09/23 08:24:14;;;;;;;3.67;1.50;;;;;;;18.02;72.65;101062.66;4958376;28;20034;-67
2023/09/23 08:26:40;;;;;;;6.57;2.03;;;;;;;17.76;72.20;101059.91;4978021;28;20409;-67
2023/09/23 08:29:06;;;;;;;11.40;2.90;;;;;;;18.00;70.79;101062.03;4959165;28;20521;-67
2023/09/23 08:31:31;;;;;;;2.80;1.17;;;;;;;18.21;71.83;101065.50;4961565;28;20125;-67
2023/09/23 08:33:57;;;;;;;4.70;1.70;;;;;;;18.42;70.89;101067.97;4959002;28;20511;-67
2023/09/23 08:36:23;;;;;;;4.00;1.80;;;;;;;18.92;70.13;101066.75;4966116;28;20039;-67
2023/09/23 08:38:48;;;;;;;8.48;1.95;;;;;;;19.34;67.89;101081.19;4941619;28;20512;-67
2023/09/23 08:41:16;;;;;;;7.28;1.60;;;;;;;19.42;66.95;101078.34;4971240;28;20047;-67
2023/09/23 08:43:42;;;;;;;5.25;1.60;;;;;;;19.58;65.02;101087.59;4978464;28;20088;-67
2023/09/23 08:46:11;;;;;;;6.05;1.65;;;;;;;19.53;65.18;101084.75;4961291;28;20053;-67
2023/09/23 08:48:38;;;;;;;7.07;1.90;;;;;;;19.41;65.54;101100.38;4979148;28;20046;-67
2023/09/23 08:51:06;;;;;;;2.90;1.30;;;;;;;19.84;63.79;101096.41;4977679;28;20459;-66
2023/09/23 08:53:34;;;;;;;5.88;1.60;;;;;;;19.26;65.06;101105.09;4975011;28;20043;-67
2023/09/23 08:56:00;;;;;;;4.72;1.38;;;;;;;19.07;66.56;101106.75;4957624;28;20042;-66
2023/09/23 08:58:26;;;;;;;4.53;1.38;;;;;;;18.90;68.22;101114.25;4977033;28;20062;-67
2023/09/23 09:00:53;;;;;;;7.28;1.60;;;;;;;18.78;69.53;101115.81;4967536;28;20481;-67
2023/09/23 09:03:18;;;;;;;7.88;1.25;;;;;;;18.77;69.29;101124.72;4958659;28;20486;-67
2023/09/23 09:05:46;;;;;;;4.72;1.80;;;;;;;18.49;70.61;101118.63;4958127;28;20097;-67
2023/09/23 09:08:12;;;;;;;5.50;1.42;;;;;;;18.15;71.76;101118.78;4978173;28;20741;-67
2023/09/23 09:10:40;;;;;;;5.00;1.77;;;;;;;17.82;72.67;101111.59;4947467;28;20046;-66
2023/09/23 09:13:07;;;;;;;6.07;2.00;;;;;;;17.65;74.05;101122.44;4979362;28;20133;-67
2023/09/23 09:15:35;;;;;;;6.47;2.00;;;;;;;17.82;74.27;101122.91;4974894;28;20050;-66
2023/09/23 09:18:01;;;;;;;4.63;1.67;;;;;;;17.79;75.00;101127.72;4958976;28;20042;-67
2023/09/23 09:20:27;;;;;;;5.47;1.50;;;;;;;18.02;71.91;101140.56;4980031;28;20050;-66
2023/09/23 09:22:53;;;;;;;8.57;1.88;;;;;;;18.37;72.88;101135.19;4957334;28;20051;-66
2023/09/23 09:25:22;;;;;;;6.50;1.40;;;;;;;18.57;72.92;101143.09;4978547;28;20046;-67
2023/09/23 09:27:49;;;;;;;5.88;1.48;;;;;;;18.53;70.13;101128.75;4954665;28;20046;-67
2023/09/23 09:30:14;;;;;;;4.13;1.13;;;;;;;18.37;71.10;101136.00;4976848;28;20038;-67
2023/09/23 09:32:44;;;;;;;3.13;1.45;;;;;;;17.70;71.04;101137.56;4975557;28;20116;-67
2023/09/23 09:35:14;;;;;;;6.10;1.70;;;;;;;17.75;72.54;101137.81;4979440;28;20046;-66
2023/09/23 09:37:45;;;;;;;7.47;1.77;;;;;;;17.41;72.99;101144.69;4956505;28;20043;-67
2023/09/23 09:40:18;;;;;;;4.40;1.17;;;;;;;17.23;74.46;101147.78;4972033;28;20038;-67
2023/09/23 09:42:54;;;;;;;3.85;1.35;;;;;;;17.25;75.48;101148.44;4967765;28;20134;-66
2023/09/23 09:45:21;;;;;;;3.83;1.50;;;;;;;17.44;74.32;101157.41;4961604;28;20104;-67
2023/09/23 09:47:48;;;;;;;8.90;1.65;;;;;;;17.35;73.97;101158.56;4977592;28;20137;-67
2023/09/23 09:50:14;;;;;;;7.85;1.60;;;;;;;17.58;73.55;101154.88;4955846;28;20053;-67
2023/09/23 09:52:46;;;;;;;5.93;1.23;;;;;;;17.76;74.27;101146.47;4941914;28;20058;-67
2023/09/23 09:55:19;;;;;;;6.53;1.63;;;;;;;17.26;73.38;101173.63;4975816;28;20470;-66
2023/09/23 09:57:47;;;;;;;7.15;1.98;;;;;;;17.31;73.99;101173.84;4941266;28;20042;-66
2023/09/23 10:00:28;;;;;;;7.25;1.75;;;;;;;17.38;74.45;101170.47;4976918;28;20052;-66
2023/09/23 10:03:02;;;;;;;5.50;1.55;;;;;;;17.25;74.51;101165.94;4954278;28;20038;-66
2023/09/23 10:05:32;;;;;;;6.75;1.95;;;;;;;17.15;74.25;101174.13;4973294;28;20444;-66
2023/09/23 10:07:57;;;;;;;10.48;1.80;;;;;;;17.03;76.15;101173.06;4971613;28;20507;-66
2023/09/23 10:10:38;;;;;;;4.68;1.48;;;;;;;17.35;76.22;101189.19;4976289;28;20046;-66
2023/09/23 10:13:22;;;;;;;7.20;1.80;;;;;;;17.49;77.44;101175.16;4973329;28;20042;-66
2023/09/23 10:15:48;;;;;;;6.55;1.40;;;;;;;17.59;74.10;101174.81;4972415;28;20046;-66
2023/09/23 10:18:18;;;;;;;4.75;1.35;;;;;;;17.50;75.15;101182.06;4956594;28;20405;-66
2023/09/23 10:20:49;;;;;;;4.60;1.40;;;;;;;17.35;75.61;101181.31;4973480;28;20097;-66
2023/09/23 10:23:16;;;;;;;4.63;1.17;;;;;;;17.43;76.14;101189.06;4974623;28;20121;-66
2023/09/23 10:25:46;;;;;;;3.75;1.27;;;;;;;17.06;74.19;101183.94;4959375;28;20038;-67
2023/09/23 10:28:25;;;;;;;3.72;1.30;;;;;;;16.80;72.99;101195.00;4972486;28;20164;-66
2023/09/23 10:31:10;;;;;;;5.03;1.23;;;;;;;17.15;72.93;101189.84;4970921;23;20047;-69
2023/09/23 10:33:36;;;;;;;8.05;1.15;;;;;;;17.40;73.85;101197.28;4963531;28;20046;-69
2023/09/23 10:36:03;;;;;;;4.78;1.10;;;;;;;17.54;72.41;101191.16;4953441;28;20413;-68
2023/09/23 10:38:34;;;;;;;4.75;1.00;;;;;;;17.41;72.01;101186.63;4971764;28;20039;-68
2023/09/23 10:41:01;;;;;;;3.65;1.10;;;;;;;17.52;70.72;101196.56;4952527;28;20054;-69
2023/09/23 10:43:27;;;;;;;2.92;0.90;;;;;;;17.51;72.40;101196.75;4939483;28;20508;-69
2023/09/23 10:45:54;;;;;;;4.30;1.08;;;;;;;17.46;70.62;101196.50;4937665;28;20058;-68
2023/09/23 10:48:20;;;;;;;4.05;1.02;;;;;;;17.65;71.21;101200.25;4934393;28;20449;-68
2023/09/23 10:50:46;;;;;;;4.43;1.13;;;;;;;17.47;71.08;101203.38;4951598;28;20046;-69
2023/09/23 10:53:13;;;;;;;4.97;0.93;;;;;;;17.21;71.06;101207.44;4931833;28;20043;-68
2023/09/23 10:55:41;;;;;;;2.40;0.93;;;;;;;17.22;72.14;101203.03;4938310;28;20060;-69
2023/09/23 10:58:08;;;;;;;9.15;1.75;;;;;;;17.53;71.38;101207.84;4952456;28;20066;-69
2023/09/23 11:00:34;;;;;;;2.78;0.70;;;;;;;17.59;69.07;101209.72;4934710;28;20031;-68
2023/09/23 11:03:08;;;;;;;6.50;1.33;;;;;;;17.48;69.83;101207.66;4934371;28;20513;-68
2023/09/23 11:05:37;;;;;;;2.25;0.93;;;;;;;17.28;71.48;101218.78;4953755;28;20035;-69
2023/09/23 11:08:06;;;;;;;4.75;0.90;;;;;;;17.40;71.68;101223.50;4953514;28;20043;-69
2023/09/23 11:10:34;;;;;;;4.68;0.90;;;;;;;17.39;69.81;101221.91;4930781;28;20098;-69
2023/09/23 11:12:59;;;;;;;3.83;1.10;;;;;;;17.58;71.80;101221.22;4949828;28;20034;-69
2023/09/23 11:15:25;;;;;;;5.13;1.58;;;;;;;17.54;70.64;101225.22;4934530;28;20062;-68
2023/09/23 11:17:54;;;;;;;4.43;1.10;;;;;;;17.56;69.33;101227.66;4936491;28;20097;-68
2023/09/23 11:20:30;;;;;;;4.05;1.17;;;;;;;17.55;70.78;101234.69;4947447;28;20057;-69